createdAt,value
2022-11-05T00:00:18.571Z,98452.50
2022-11-05T00:03:03.808Z,98451.59
2022-11-05T00:05:49.702Z,98458.66
2022-11-05T00:08:34.740Z,98458.66
2022-11-05T00:11:01.363Z,98469.22
2022-11-05T00:13:46.828Z,98471.00
2022-11-05T00:16:31.708Z,98468.34
2022-11-05T00:19:06.971Z,98474.50
2022-11-05T00:21:53.563Z,98478.00
2022-11-05T00:24:44.561Z,98480.66
2022-11-05T00:27:14.449Z,98482.41
2022-11-05T00:29:40.941Z,98483.31
2022-11-05T00:32:07.498Z,98492.13
2022-11-05T00:34:33.955Z,98482.41
2022-11-05T00:37:00.452Z,98485.94
2022-11-05T00:39:26.923Z,98489.50
2022-11-05T00:42:11.699Z,98492.16
2022-11-05T00:44:56.679Z,98493.00
2022-11-05T00:47:41.451Z,98495.69
2022-11-05T00:50:13.428Z,98506.22
2022-11-05T00:52:58.961Z,98510.63
2022-11-05T00:55:33.472Z,98512.41
2022-11-05T00:58:00.963Z,98508.00
2022-11-05T01:00:29.744Z,98511.53
2022-11-05T01:03:12.259Z,98522.06
2022-11-05T01:05:44.462Z,98523.84
2022-11-05T01:08:11.631Z,98525.59
2022-11-05T01:10:47.338Z,98526.47
2022-11-05T01:13:16.648Z,98520.31
2022-11-05T01:15:43.990Z,98529.97
2022-11-05T01:18:11.446Z,98536.16
2022-11-05T01:20:38.485Z,98538.81
2022-11-05T01:23:11.927Z,98528.25
2022-11-05T01:25:40.302Z,98537.94
2022-11-05T01:28:06.930Z,98532.66
2022-11-05T01:30:33.410Z,98535.28
2022-11-05T01:32:59.851Z,98536.16
2022-11-05T01:35:30.898Z,98534.41
2022-11-05T01:38:03.155Z,98536.19
2022-11-05T01:40:32.926Z,98543.22
2022-11-05T01:42:59.359Z,98534.44
2022-11-05T01:45:30.990Z,98540.59
2022-11-05T01:48:07.988Z,98542.34
2022-11-05T01:51:06.332Z,98547.63
2022-11-05T01:53:39.746Z,98547.63
2022-11-05T01:56:17.544Z,98539.69
2022-11-05T01:59:30.457Z,98541.47
2022-11-05T02:01:57.545Z,98547.63
2022-11-05T02:04:35.567Z,98549.38
2022-11-05T02:07:04.864Z,98540.59
2022-11-05T02:09:56.192Z,98546.75
2022-11-05T02:12:23.909Z,98552.91
2022-11-05T02:14:50.382Z,98542.34
2022-11-05T02:17:29.477Z,98545.88
2022-11-05T02:20:14.194Z,98544.09
2022-11-05T02:23:01.982Z,98548.50
2022-11-05T02:25:40.115Z,98553.78
2022-11-05T02:28:31.320Z,98559.06
2022-11-05T02:31:06.102Z,98557.31
2022-11-05T02:33:56.703Z,98562.56
2022-11-05T02:36:34.024Z,98555.53
2022-11-05T02:39:11.174Z,98555.53
2022-11-05T02:41:50.458Z,98557.31
2022-11-05T02:44:44.202Z,98564.31
2022-11-05T02:47:47.753Z,98558.16
2022-11-05T02:50:45.131Z,98564.31
2022-11-05T02:53:21.736Z,98563.47
2022-11-05T02:56:01.284Z,98567.84
2022-11-05T02:58:28.894Z,98570.47
2022-11-05T03:00:56.556Z,98566.09
2022-11-05T03:03:35.697Z,98566.09
2022-11-05T03:06:45.936Z,98568.72
2022-11-05T03:09:30.422Z,98566.09
2022-11-05T03:12:22.785Z,98573.97
2022-11-05T03:15:07.285Z,98573.09
2022-11-05T03:17:38.935Z,98577.50
2022-11-05T03:20:23.595Z,98573.09
2022-11-05T03:23:14.810Z,98581.03
2022-11-05T03:25:49.842Z,98573.97
2022-11-05T03:28:20.024Z,98583.66
2022-11-05T03:30:50.415Z,98586.28
2022-11-05T03:33:25.400Z,98588.03
2022-11-05T03:35:58.664Z,98589.84
2022-11-05T03:38:32.527Z,98588.91
2022-11-05T03:41:03.856Z,98588.00
2022-11-05T03:43:35.417Z,98600.31
2022-11-05T03:46:18.041Z,98594.16
2022-11-05T03:48:49.149Z,98602.09
2022-11-05T03:51:43.695Z,98605.59
2022-11-05T03:54:10.867Z,98600.31
2022-11-05T03:57:03.410Z,98610.84
2022-11-05T03:59:32.981Z,98602.88
2022-11-05T04:01:59.531Z,98611.66
2022-11-05T04:04:26.193Z,98622.13
2022-11-05T04:07:11.115Z,98622.22
2022-11-05T04:09:55.935Z,98630.03
2022-11-05T04:12:41.245Z,98635.31
2022-11-05T04:15:08.436Z,98634.44
2022-11-05T04:17:34.916Z,98632.72
2022-11-05T04:20:20.344Z,98634.44
2022-11-05T04:23:05.006Z,98634.41
2022-11-05T04:25:31.502Z,98634.38
2022-11-05T04:28:00.993Z,98644.09
2022-11-05T04:30:27.760Z,98634.44
2022-11-05T04:32:58.476Z,98637.06
2022-11-05T04:35:26.359Z,98642.28
2022-11-05T04:37:53.157Z,98643.16
2022-11-05T04:40:19.627Z,98632.66
2022-11-05T04:42:46.129Z,98647.59
2022-11-05T04:45:12.682Z,98640.56
2022-11-05T04:47:39.136Z,98650.25
2022-11-05T04:50:05.986Z,98647.59
2022-11-05T04:52:32.426Z,98656.38
2022-11-05T04:54:58.886Z,98652.88
2022-11-05T04:57:25.336Z,98659.91
2022-11-05T04:59:52.153Z,98667.81
2022-11-05T05:02:18.688Z,98667.75
2022-11-05T05:04:45.154Z,98672.13
2022-11-05T05:07:11.640Z,98668.63
2022-11-05T05:09:38.135Z,98670.38
2022-11-05T05:12:04.808Z,98679.16
2022-11-05T05:14:31.309Z,98673.91
2022-11-05T05:16:57.812Z,98668.63
2022-11-05T05:19:25.006Z,98668.63
2022-11-05T05:21:51.552Z,98672.16
2022-11-05T05:24:21.038Z,98677.41
2022-11-05T05:26:49.584Z,98675.66
2022-11-05T05:29:19.570Z,98683.56
2022-11-05T05:31:46.056Z,98680.94
2022-11-05T05:34:14.277Z,98676.59
2022-11-05T05:36:40.763Z,98677.41
2022-11-05T05:39:11.135Z,98683.56
2022-11-05T05:41:37.757Z,98685.31
2022-11-05T05:44:05.328Z,98691.47
2022-11-05T05:46:35.119Z,98694.97
2022-11-05T05:49:01.570Z,98701.13
2022-11-05T05:51:28.073Z,98700.19
2022-11-05T05:53:54.913Z,98710.78
2022-11-05T05:56:21.512Z,98716.91
2022-11-05T05:58:48.098Z,98718.69
2022-11-05T06:01:19.242Z,98714.28
2022-11-05T06:03:46.534Z,98721.25
2022-11-05T06:06:14.830Z,98730.09
2022-11-05T06:08:42.208Z,98728.28
2022-11-05T06:11:09.462Z,98732.66
2022-11-05T06:13:37.226Z,98730.00
2022-11-05T06:16:06.113Z,98737.00
2022-11-05T06:18:33.763Z,98731.78
2022-11-05T06:21:11.851Z,98731.78
2022-11-05T06:23:42.895Z,98732.63
2022-11-05T06:26:12.714Z,98732.66
2022-11-05T06:28:39.292Z,98730.84
2022-11-05T06:31:06.046Z,98734.34
2022-11-05T06:33:32.554Z,98738.72
2022-11-05T06:36:00.318Z,98737.94
2022-11-05T06:38:27.147Z,98745.84
2022-11-05T06:40:53.597Z,98748.50
2022-11-05T06:43:20.059Z,98757.28
2022-11-05T06:45:46.546Z,98763.47
2022-11-05T06:48:13.040Z,98761.72
2022-11-05T06:50:44.179Z,98759.97
2022-11-05T06:53:11.097Z,98759.97
2022-11-05T06:55:37.940Z,98763.41
2022-11-05T06:58:04.606Z,98766.97
2022-11-05T07:00:32.711Z,98761.72
2022-11-05T07:03:07.143Z,98759.09
2022-11-05T07:05:36.629Z,98768.75
2022-11-05T07:08:06.391Z,98770.53
2022-11-05T07:10:33.107Z,98768.78
2022-11-05T07:13:02.505Z,98770.59
2022-11-05T07:15:33.221Z,98775.84
2022-11-05T07:18:00.975Z,98775.88
2022-11-05T07:20:33.477Z,98771.50
2022-11-05T07:23:05.594Z,98776.78
2022-11-05T07:25:32.935Z,98779.44
2022-11-05T07:28:00.358Z,98785.59
2022-11-05T07:30:27.719Z,98793.53
2022-11-05T07:32:54.340Z,98793.50
2022-11-05T07:35:21.068Z,98798.78
2022-11-05T07:37:49.526Z,98805.00
2022-11-05T07:40:20.955Z,98810.34
2022-11-05T07:42:50.141Z,98817.44
2022-11-05T07:45:16.904Z,98811.28
2022-11-05T07:48:00.842Z,98817.50
2022-11-05T07:50:31.938Z,98816.69
2022-11-05T07:53:15.681Z,98823.72
2022-11-05T07:55:42.782Z,98830.81
2022-11-05T07:58:09.882Z,98832.59
2022-11-05T08:00:36.764Z,98841.41
2022-11-05T08:03:08.157Z,98843.19
2022-11-05T08:05:39.211Z,98847.59
2022-11-05T08:08:08.036Z,98845.84
2022-11-05T08:10:35.340Z,98840.59
2022-11-05T08:13:02.266Z,98849.41
2022-11-05T08:15:29.112Z,98857.34
2022-11-05T08:18:04.369Z,98855.63
2022-11-05T08:20:31.040Z,98853.03
2022-11-05T08:22:58.012Z,98858.31
2022-11-05T08:25:25.038Z,98864.47
2022-11-05T08:28:00.317Z,98862.75
2022-11-05T08:30:27.320Z,98861.00
2022-11-05T08:32:59.783Z,98869.84
2022-11-05T08:35:27.184Z,98869.78
2022-11-05T08:38:02.760Z,98872.50
2022-11-05T08:40:31.858Z,98865.47
2022-11-05T08:42:59.631Z,98867.28
2022-11-05T08:45:27.295Z,98869.97
2022-11-05T08:48:01.423Z,98873.47
2022-11-05T08:50:28.641Z,98871.75
2022-11-05T08:52:55.201Z,98875.25
2022-11-05T08:55:22.333Z,98883.19
2022-11-05T08:57:54.565Z,98875.25
2022-11-05T09:00:21.145Z,98877.00
2022-11-05T09:02:47.634Z,98877.91
2022-11-05T09:05:14.139Z,98884.94
2022-11-05T09:07:40.633Z,98883.16
2022-11-05T09:10:07.357Z,98886.69
2022-11-05T09:12:33.898Z,98898.13
2022-11-05T09:15:00.527Z,98899.91
2022-11-05T09:17:27.128Z,98910.53
2022-11-05T09:19:53.684Z,98903.47
2022-11-05T09:22:20.152Z,98905.22
2022-11-05T09:24:46.690Z,98905.22
2022-11-05T09:27:14.587Z,98912.28
2022-11-05T09:29:42.146Z,98910.44
2022-11-05T09:32:09.259Z,98908.59
2022-11-05T09:34:36.010Z,98909.47
2022-11-05T09:37:02.675Z,98917.34
2022-11-05T09:39:29.376Z,98918.22
2022-11-05T09:42:01.935Z,98922.66
2022-11-05T09:44:49.739Z,98922.69
2022-11-05T09:47:26.311Z,98923.72
2022-11-05T09:49:56.016Z,98915.78
2022-11-05T09:52:29.491Z,98922.84
2022-11-05T09:54:57.704Z,98924.63
2022-11-05T09:57:49.028Z,98930.78
2022-11-05T10:00:19.129Z,98923.72
2022-11-05T10:02:53.300Z,98935.19
2022-11-05T10:05:22.038Z,98933.41
2022-11-05T10:07:53.496Z,98929.91
2022-11-05T10:10:42.102Z,98928.13
2022-11-05T10:13:31.945Z,98929.91
2022-11-05T10:16:01.762Z,98929.88
2022-11-05T10:18:34.137Z,98941.31
2022-11-05T10:21:01.271Z,98938.66
2022-11-05T10:23:28.378Z,98945.63
2022-11-05T10:26:01.859Z,98954.41
2022-11-05T10:28:30.723Z,98942.03
2022-11-05T10:31:07.904Z,98946.47
2022-11-05T10:34:00.986Z,98972.06
2022-11-05T10:36:36.161Z,98962.38
2022-11-05T10:39:18.044Z,98974.78
2022-11-05T10:41:52.594Z,98969.56
2022-11-05T10:44:56.624Z,98963.34
2022-11-05T10:47:47.525Z,98966.00
2022-11-05T10:50:25.020Z,98973.13
2022-11-05T10:52:51.442Z,98971.34
2022-11-05T10:55:36.372Z,98970.50
2022-11-05T10:58:15.175Z,98974.88
2022-11-05T11:00:44.577Z,98978.34
2022-11-05T11:03:40.150Z,98973.84
2022-11-05T11:06:18.289Z,98972.06
2022-11-05T11:08:47.153Z,98976.47
2022-11-05T11:11:45.184Z,98970.13
2022-11-05T11:14:11.676Z,98963.91
2022-11-05T11:16:40.411Z,98972.69
2022-11-05T11:19:39.197Z,98965.72
2022-11-05T11:22:05.603Z,98962.22
2022-11-05T11:24:39.335Z,98971.13
2022-11-05T11:27:11.230Z,98964.97
2022-11-05T11:29:45.220Z,98968.50
2022-11-05T11:32:18.742Z,98971.13
2022-11-05T11:34:48.954Z,98971.16
2022-11-05T11:37:22.095Z,98967.56
2022-11-05T11:39:53.431Z,98964.94
2022-11-05T11:42:30.884Z,98969.34
2022-11-05T11:45:00.498Z,98963.16
2022-11-05T11:47:29.008Z,98965.78
2022-11-05T11:49:58.235Z,98961.34
2022-11-05T11:52:32.487Z,98967.56
2022-11-05T11:55:19.388Z,98955.22
2022-11-05T11:57:51.561Z,98965.00
2022-11-05T12:00:19.677Z,98956.16
2022-11-05T12:03:04.566Z,98957.03
2022-11-05T12:05:53.033Z,98942.91
2022-11-05T12:08:45.381Z,98949.09
2022-11-05T12:11:29.506Z,98951.75
2022-11-05T12:14:13.489Z,98951.75
2022-11-05T12:16:54.641Z,98947.34
2022-11-05T12:20:01.171Z,98956.16
2022-11-05T12:22:43.114Z,98943.81
2022-11-05T12:25:45.284Z,98946.44
2022-11-05T12:28:24.245Z,98951.75
2022-11-05T12:31:06.016Z,98954.41
2022-11-05T12:34:09.811Z,98949.09
2022-11-05T12:36:55.920Z,98945.59
2022-11-05T12:39:43.483Z,98940.38
2022-11-05T12:42:20.486Z,98937.66
2022-11-05T12:45:09.580Z,98935.88
2022-11-05T12:47:50.755Z,98931.41
2022-11-05T12:50:23.007Z,98932.28
2022-11-05T12:53:15.234Z,98933.16
2022-11-05T12:55:48.723Z,98931.44
2022-11-05T12:58:22.944Z,98941.19
2022-11-05T13:00:59.065Z,98928.78
2022-11-05T13:03:31.694Z,98926.16
2022-11-05T13:06:05.605Z,98926.16
2022-11-05T13:08:49.104Z,98924.41
2022-11-05T13:11:31.889Z,98931.47
2022-11-05T13:14:21.503Z,98927.06
2022-11-05T13:16:52.541Z,98933.28
2022-11-05T13:19:31.016Z,98930.66
2022-11-05T13:22:09.586Z,98935.06
2022-11-05T13:24:48.088Z,98936.78
2022-11-05T13:27:23.459Z,98937.69
2022-11-05T13:29:59.596Z,98931.53
2022-11-05T13:32:31.989Z,98933.31
2022-11-05T13:35:01.790Z,98930.69
2022-11-05T13:37:51.998Z,98936.84
2022-11-05T13:40:24.849Z,98934.19
2022-11-05T13:43:00.086Z,98935.06
2022-11-05T13:45:51.346Z,98934.22
2022-11-05T13:48:48.829Z,98931.56
2022-11-05T13:51:27.636Z,98934.22
2022-11-05T13:54:05.432Z,98928.06
2022-11-05T13:56:53.042Z,98929.84
2022-11-05T13:59:38.235Z,98928.06
2022-11-05T14:02:16.355Z,98928.06
2022-11-05T14:04:50.436Z,98928.97
2022-11-05T14:07:25.543Z,98929.00
2022-11-05T14:10:05.232Z,98929.88
2022-11-05T14:12:35.991Z,98934.28
2022-11-05T14:15:10.729Z,98929.88
2022-11-05T14:17:59.571Z,98934.31
2022-11-05T14:20:32.169Z,98931.63
2022-11-05T14:23:17.350Z,98934.31
2022-11-05T14:25:43.776Z,98936.94
2022-11-05T14:28:34.821Z,98932.53
2022-11-05T14:31:02.451Z,98936.06
2022-11-05T14:33:28.881Z,98938.72
2022-11-05T14:36:19.913Z,98936.09
2022-11-05T14:38:52.080Z,98944.91
2022-11-05T14:41:19.965Z,98944.03
2022-11-05T14:44:07.378Z,98944.03
2022-11-05T14:47:05.314Z,98942.25
2022-11-05T14:49:49.202Z,98940.50
2022-11-05T14:52:18.687Z,98943.16
2022-11-05T14:54:50.410Z,98942.25
2022-11-05T14:57:42.473Z,98948.44
2022-11-05T15:00:40.629Z,98951.09
2022-11-05T15:03:46.429Z,98951.06
2022-11-05T15:06:35.178Z,98944.91
2022-11-05T15:09:11.364Z,98944.91
2022-11-05T15:11:41.010Z,98945.78
2022-11-05T15:14:22.649Z,98947.53
2022-11-05T15:16:53.374Z,98954.59
2022-11-05T15:19:26.969Z,98958.09
2022-11-05T15:21:56.644Z,98955.41
2022-11-05T15:24:24.051Z,98961.59
2022-11-05T15:27:19.045Z,98961.56
2022-11-05T15:29:45.849Z,98967.72
2022-11-05T15:32:18.392Z,98962.41
2022-11-05T15:34:55.823Z,98967.69
2022-11-05T15:37:26.122Z,98966.78
2022-11-05T15:39:55.777Z,98965.03
2022-11-05T15:42:27.626Z,98968.53
2022-11-05T15:44:56.497Z,98969.44
2022-11-05T15:47:24.036Z,98968.53
2022-11-05T15:49:53.441Z,98976.47
2022-11-05T15:52:23.525Z,98976.44
2022-11-05T15:55:14.869Z,98979.91
2022-11-05T15:57:51.052Z,98986.06
2022-11-05T16:00:25.397Z,98982.53
2022-11-05T16:03:03.012Z,98984.31
2022-11-05T16:05:33.510Z,98986.06
2022-11-05T16:08:00.980Z,98980.78
2022-11-05T16:10:32.864Z,98978.09
2022-11-05T16:13:30.222Z,98978.94
2022-11-05T16:15:59.574Z,98984.19
2022-11-05T16:18:32.373Z,98985.88
2022-11-05T16:21:19.375Z,98996.47
2022-11-05T16:23:48.858Z,98992.09
2022-11-05T16:29:30.804Z,98992.97
2022-11-05T16:31:59.962Z,98991.22
2022-11-05T16:34:35.289Z,98993.84
2022-11-05T16:37:02.902Z,98992.09
2022-11-05T16:39:29.470Z,98994.72
2022-11-05T16:41:55.936Z,98994.72
2022-11-05T16:44:22.814Z,98987.69
2022-11-05T16:46:50.093Z,98992.09
2022-11-05T16:49:17.462Z,98981.53
2022-11-05T16:51:44.287Z,98968.31
2022-11-05T16:54:11.013Z,98963.94
2022-11-05T16:56:42.403Z,98964.81
2022-11-05T16:59:12.179Z,98975.38
2022-11-05T17:01:41.952Z,98980.66
2022-11-05T17:04:11.872Z,98978.91
2022-11-05T17:06:38.392Z,98978.91
2022-11-05T17:09:04.940Z,98981.53
2022-11-05T17:11:31.407Z,98984.16
2022-11-05T17:13:57.914Z,98990.28
2022-11-05T17:16:24.407Z,98988.53
2022-11-05T17:18:50.959Z,98986.69
2022-11-05T17:21:17.643Z,98992.84
2022-11-05T17:23:44.814Z,98987.47
2022-11-05T17:26:12.431Z,98977.72
2022-11-05T17:28:40.525Z,98986.47
2022-11-05T17:31:09.697Z,98982.94
2022-11-05T17:33:36.422Z,98986.44
2022-11-05T17:36:08.684Z,98997.88
2022-11-05T17:38:35.558Z,98993.44
2022-11-05T17:41:02.394Z,98997.91
2022-11-05T17:43:28.860Z,98993.56
2022-11-05T17:45:59.962Z,98987.41
2022-11-05T17:48:29.656Z,98991.84
2022-11-05T17:50:57.018Z,98998.88
2022-11-05T17:53:23.488Z,99004.13
2022-11-05T17:55:50.045Z,99005.00
2022-11-05T17:58:16.600Z,99019.06
2022-11-05T18:00:44.254Z,99018.19
2022-11-05T18:03:12.227Z,99028.81
2022-11-05T18:05:40.077Z,99022.66
2022-11-05T18:08:07.571Z,99034.09
2022-11-05T18:10:37.645Z,99024.38
2022-11-05T18:13:04.544Z,99017.41
2022-11-05T18:15:31.028Z,99019.25
2022-11-05T18:17:57.603Z,99028.06
2022-11-05T18:20:24.250Z,99027.22
2022-11-05T18:22:51.132Z,99014.91
2022-11-05T18:25:18.427Z,99023.72
2022-11-05T18:27:45.094Z,99015.75
2022-11-05T18:30:15.327Z,99013.09
2022-11-05T18:32:43.896Z,99012.22
2022-11-05T18:35:11.004Z,99016.59
2022-11-05T18:37:38.723Z,99022.75
2022-11-05T18:40:06.239Z,99029.78
2022-11-05T18:42:32.812Z,99017.47
2022-11-05T18:45:01.762Z,99012.19
2022-11-05T18:47:28.322Z,99016.59
2022-11-05T18:49:54.793Z,99012.22
2022-11-05T18:52:21.337Z,99008.72
2022-11-05T18:54:47.898Z,99003.41
2022-11-05T18:57:14.337Z,99008.72
2022-11-05T18:59:42.178Z,99003.47
2022-11-05T19:02:10.798Z,98999.94
2022-11-05T19:04:37.768Z,98993.81
2022-11-05T19:07:05.706Z,99002.66
2022-11-05T19:09:36.426Z,99001.78
2022-11-05T19:12:04.394Z,98997.38
2022-11-05T19:14:31.411Z,98997.38
2022-11-05T19:16:58.857Z,98998.19
2022-11-05T19:19:25.906Z,98992.03
2022-11-05T19:21:52.592Z,98992.94
2022-11-05T19:24:19.046Z,98991.19
2022-11-05T19:26:46.678Z,98985.00
2022-11-05T19:29:13.181Z,98987.63
2022-11-05T19:31:39.869Z,98992.09
2022-11-05T19:34:06.453Z,98995.56
2022-11-05T19:36:33.970Z,98998.19
2022-11-05T19:39:03.577Z,99000.84
2022-11-05T19:41:30.977Z,98998.25
2022-11-05T19:44:01.731Z,98998.28
2022-11-05T19:46:29.669Z,99007.06
2022-11-05T19:48:56.781Z,98995.63
2022-11-05T19:51:25.918Z,98986.78
2022-11-05T19:53:53.452Z,98979.72
2022-11-05T19:56:22.769Z,98985.03
2022-11-05T19:58:49.816Z,98998.25
2022-11-05T20:01:17.615Z,98993.84
2022-11-05T20:03:44.839Z,98991.22
2022-11-05T20:06:14.557Z,98988.59
2022-11-05T20:08:59.814Z,99000.91
2022-11-05T20:11:29.134Z,99003.53
2022-11-05T20:13:56.417Z,98999.09
2022-11-05T20:16:42.242Z,98999.97
2022-11-05T20:19:14.836Z,98994.69
2022-11-05T20:21:41.663Z,98996.44
2022-11-05T20:24:08.417Z,99001.72
2022-11-05T20:26:35.414Z,98998.19
2022-11-05T20:29:02.011Z,98991.16
2022-11-05T20:31:28.559Z,98985.94
2022-11-05T20:33:55.304Z,98987.69
2022-11-05T20:36:23.146Z,98986.81
2022-11-05T20:38:55.331Z,98994.72
2022-11-05T20:41:22.467Z,98978.00
2022-11-05T20:43:49.042Z,98970.97
2022-11-05T20:46:18.188Z,98976.25
2022-11-05T20:48:45.466Z,98987.69
2022-11-05T20:51:17.524Z,98989.44
2022-11-05T20:53:44.330Z,98994.72
2022-11-05T20:56:22.983Z,98992.91
2022-11-05T20:58:50.306Z,98989.38
2022-11-05T21:01:18.371Z,98983.22
2022-11-05T21:03:45.990Z,98990.28
2022-11-05T21:06:13.044Z,98992.91
2022-11-05T21:08:39.962Z,98988.50
2022-11-05T21:11:07.372Z,98994.66
2022-11-05T21:13:34.717Z,98992.03
2022-11-05T21:16:02.264Z,98998.19
2022-11-05T21:18:33.135Z,98992.91
2022-11-05T21:21:02.507Z,98994.63
2022-11-05T21:23:29.071Z,98985.81
2022-11-05T21:25:55.730Z,98989.34
2022-11-05T21:28:22.458Z,98983.19
2022-11-05T21:30:49.204Z,99000.81
2022-11-05T21:33:18.484Z,98991.97
2022-11-05T21:35:48.452Z,98995.53
2022-11-05T21:38:16.800Z,98983.16
2022-11-05T21:40:44.053Z,98998.19
2022-11-05T21:43:12.644Z,98997.25
2022-11-05T21:45:40.387Z,98992.03
2022-11-05T21:48:07.680Z,98994.66
2022-11-05T21:50:53.186Z,98998.19
2022-11-05T21:53:39.028Z,99002.56
2022-11-05T21:56:41.882Z,98996.41
2022-11-05T21:59:32.697Z,98997.31
2022-11-05T22:02:02.412Z,98994.66
2022-11-05T22:04:30.583Z,98988.50
2022-11-05T22:06:57.205Z,98992.03
2022-11-05T22:09:24.696Z,98991.13
2022-11-05T22:11:51.390Z,98991.97
2022-11-05T22:14:18.003Z,98997.25
2022-11-05T22:16:44.500Z,98994.59
2022-11-05T22:19:11.163Z,98997.22
2022-11-05T22:21:38.151Z,99002.53
2022-11-05T22:24:05.393Z,98987.56
2022-11-05T22:26:31.895Z,98986.69
2022-11-05T22:28:58.462Z,98991.09
2022-11-05T22:31:24.960Z,98984.91
2022-11-05T22:33:51.479Z,98977.88
2022-11-05T22:36:18.494Z,98980.50
2022-11-05T22:38:45.157Z,98982.22
2022-11-05T22:41:14.802Z,98986.59
2022-11-05T22:43:41.779Z,98992.75
2022-11-05T22:46:14.493Z,98989.22
2022-11-05T22:48:44.747Z,98975.09
2022-11-05T22:51:15.095Z,98984.78
2022-11-05T22:53:42.126Z,98976.03
2022-11-05T22:56:11.700Z,98972.50
2022-11-05T22:58:38.596Z,98970.69
2022-11-05T23:01:11.714Z,98965.41
2022-11-05T23:03:40.024Z,98968.06
2022-11-05T23:06:31.577Z,98970.69
2022-11-05T23:09:31.560Z,98968.09
2022-11-05T23:11:58.846Z,98969.81
2022-11-05T23:14:25.356Z,98966.28
2022-11-05T23:17:10.545Z,98968.91
2022-11-05T23:19:55.829Z,98968.84
2022-11-05T23:22:47.698Z,98973.25
2022-11-05T23:25:17.337Z,98957.41
2022-11-05T23:27:50.963Z,98960.94
2022-11-05T23:30:20.969Z,98953.00
2022-11-05T23:32:48.163Z,98960.03
2022-11-05T23:35:15.757Z,98961.78
2022-11-05T23:38:01.080Z,98957.31
2022-11-05T23:40:51.860Z,98956.44
2022-11-05T23:43:36.841Z,98948.50
2022-11-05T23:46:26.173Z,98945.84
2022-11-05T23:48:52.617Z,98932.63
2022-11-05T23:51:19.111Z,98917.66
2022-11-05T23:53:45.565Z,98915.09
2022-11-05T23:56:14.525Z,98906.31
2022-11-05T23:58:42.386Z,98908.09
